Time;durP1;ratioP1;P1;durP2;ratioP2;P2;SDS_P1;SDS_P2;PMS_P1;PMS_P2;Temp;Humidity;BMP_temperature;BMP_pressure;BME280_temperature;BME280_humidity;BME280_pressure;Samples;Min_cycle;Max_cycle;Signal;HPM_P1;HPM_P2
2023/04/26 04:00:17;;;;;;;1.80;1.70;;;4.30;99.90;;;;;;6056614;23;20704;-73
2023/04/26 04:02:44;;;;;;;2.83;0.68;;;4.30;99.90;;;;;;4987143;28;20320;-73
2023/04/26 04:05:11;;;;;;;6.82;1.10;;;4.30;99.90;;;;;;4990279;28;20337;-73
2023/04/26 04:07:38;;;;;;;0.73;0.70;;;4.30;99.90;;;;;;4990219;28;20293;-73
2023/04/26 04:10:06;;;;;;;1.58;0.70;;;4.30;99.90;;;;;;4990295;28;20210;-73
2023/04/26 04:12:32;;;;;;;0.85;0.85;;;4.30;99.90;;;;;;4990239;28;20278;-73
2023/04/26 04:14:59;;;;;;;1.27;0.95;;;4.40;99.90;;;;;;4991656;28;20243;-71
2023/04/26 04:17:27;;;;;;;0.73;0.73;;;4.40;99.90;;;;;;4991518;28;20204;-72
2023/04/26 04:19:54;;;;;;;0.88;0.88;;;4.40;99.90;;;;;;4990874;28;20211;-71
2023/04/26 04:22:21;;;;;;;0.77;0.77;;;4.40;99.90;;;;;;4990530;28;20235;-73
2023/04/26 04:24:48;;;;;;;0.40;0.40;;;4.40;99.90;;;;;;4989470;28;20252;-73
2023/04/26 04:27:15;;;;;;;3.63;0.68;;;4.50;99.90;;;;;;4989954;28;20211;-72
2023/04/26 04:29:41;;;;;;;1.38;1.38;;;4.50;99.90;;;;;;5001459;28;20219;-72
2023/04/26 04:32:08;;;;;;;2.40;1.52;;;4.50;99.90;;;;;;5010248;28;20219;-72
2023/04/26 04:34:37;;;;;;;2.47;0.75;;;4.40;99.90;;;;;;5009833;28;20245;-72
2023/04/26 04:37:04;;;;;;;4.78;0.73;;;4.40;99.90;;;;;;5010088;28;20204;-72
2023/04/26 04:39:30;;;;;;;3.80;0.85;;;4.40;99.90;;;;;;5009754;28;20349;-72
2023/04/26 04:41:57;;;;;;;37.30;1.85;;;4.40;99.90;;;;;;5009474;28;20227;-72
2023/04/26 04:44:25;;;;;;;1.33;1.15;;;4.50;99.90;;;;;;5009331;28;20207;-72
2023/04/26 04:46:52;;;;;;;0.63;0.60;;;4.80;99.90;;;;;;5009849;28;20217;-72
2023/04/26 04:49:19;;;;;;;0.82;0.82;;;5.10;99.90;;;;;;5012542;28;20207;-72
2023/04/26 04:51:47;;;;;;;12.07;2.20;;;5.40;99.90;;;;;;5013004;28;20231;-72
2023/04/26 04:54:15;;;;;;;3.03;1.48;;;5.60;99.90;;;;;;5012040;28;20235;-72
2023/04/26 04:56:44;;;;;;;0.70;0.70;;;5.80;99.90;;;;;;5012963;28;20211;-73
2023/04/26 04:59:11;;;;;;;4.15;1.70;;;5.80;99.90;;;;;;5013218;28;20486;-73
2023/04/26 05:01:38;;;;;;;0.93;0.93;;;5.80;99.90;;;;;;5012428;28;20282;-74
2023/04/26 05:04:05;;;;;;;1.30;1.30;;;5.80;99.90;;;;;;5012552;28;20265;-71
2023/04/26 05:06:32;;;;;;;0.80;0.80;;;5.70;99.90;;;;;;5012649;28;20207;-73
2023/04/26 05:09:01;;;;;;;8.93;1.13;;;5.70;99.90;;;;;;5012893;28;20207;-74
2023/04/26 05:11:28;;;;;;;0.85;0.85;;;5.70;99.90;;;;;;5011978;28;20231;-73
2023/04/26 05:13:54;;;;;;;0.65;0.65;;;5.70;99.90;;;;;;5012449;28;20207;-73
2023/04/26 05:16:21;;;;;;;0.65;0.65;;;5.70;99.90;;;;;;5013332;28;20536;-74
2023/04/26 05:18:48;;;;;;;1.70;1.23;;;5.70;99.90;;;;;;5012833;28;20318;-73
2023/04/26 05:21:15;;;;;;;1.38;0.90;;;5.70;99.90;;;;;;5012320;28;20231;-74
2023/04/26 05:23:42;;;;;;;1.40;1.30;;;5.70;99.90;;;;;;5012150;28;20690;-73
2023/04/26 05:26:15;;;;;;;1.55;1.15;;;5.70;99.90;;;;;;5012465;28;20306;-73
2023/04/26 05:28:42;;;;;;;2.70;1.20;;;5.80;99.90;;;;;;5012773;28;20211;-74
2023/04/26 05:31:09;;;;;;;1.23;1.13;;;5.90;99.90;;;;;;5004651;28;20231;-74
2023/04/26 05:33:36;;;;;;;0.65;0.65;;;5.90;99.90;;;;;;5012567;28;20207;-72
2023/04/26 05:36:03;;;;;;;0.43;0.43;;;5.90;99.90;;;;;;5012524;28;20226;-73
2023/04/26 05:38:31;;;;;;;1.25;1.15;;;6.00;99.90;;;;;;5013073;28;20255;-73
2023/04/26 05:40:58;;;;;;;0.77;0.60;;;6.10;99.90;;;;;;5011695;28;20235;-73
2023/04/26 05:43:26;;;;;;;1.88;1.77;;;6.20;99.90;;;;;;5012705;28;20215;-72
2023/04/26 05:45:53;;;;;;;2.88;0.88;;;6.20;99.90;;;;;;5012535;28;20211;-74
2023/04/26 05:48:21;;;;;;;0.50;0.50;;;6.20;99.90;;;;;;5012638;28;20215;-73
2023/04/26 05:50:48;;;;;;;2.60;1.58;;;6.20;99.90;;;;;;5013310;28;20693;-74
2023/04/26 05:53:18;;;;;;;3.60;0.80;;;6.30;99.90;;;;;;5012383;28;20226;-74
2023/04/26 05:55:45;;;;;;;0.95;0.93;;;6.40;99.90;;;;;;5012107;28;20207;-73
2023/04/26 05:58:14;;;;;;;1.35;1.23;;;6.40;99.90;;;;;;5012470;28;20209;-73
2023/04/26 06:00:42;;;;;;;11.68;1.75;;;6.50;99.90;;;;;;5010725;28;20235;-73
2023/04/26 06:03:09;;;;;;;1.45;1.45;;;6.50;99.90;;;;;;5011708;28;20231;-73
2023/04/26 06:05:37;;;;;;;0.80;0.80;;;6.50;99.90;;;;;;5011555;28;20207;-73
2023/04/26 06:08:05;;;;;;;0.95;0.95;;;6.60;99.90;;;;;;5011990;28;20721;-73
2023/04/26 06:10:31;;;;;;;8.13;2.10;;;7.10;99.90;;;;;;5011707;28;20227;-73
2023/04/26 06:12:58;;;;;;;1.65;1.55;;;7.80;99.90;;;;;;5011955;28;20218;-73
2023/04/26 06:15:26;;;;;;;6.70;1.35;;;8.30;99.90;;;;;;5011377;28;20265;-74
2023/04/26 06:17:54;;;;;;;1.58;1.05;;;8.50;99.90;;;;;;5012070;28;20219;-73
2023/04/26 06:20:22;;;;;;;0.73;0.73;;;8.40;99.90;;;;;;5011455;28;20215;-70
2023/04/26 06:22:49;;;;;;;4.57;1.75;;;8.10;99.90;;;;;;5011737;28;20652;-71
2023/04/26 06:25:16;;;;;;;0.95;0.88;;;8.00;99.90;;;;;;5011004;28;20309;-71
2023/04/26 06:27:42;;;;;;;1.70;1.10;;;7.80;99.90;;;;;;5012102;28;20597;-71
2023/04/26 06:30:10;;;;;;;1.27;1.17;;;7.80;99.90;;;;;;5010906;28;20219;-72
2023/04/26 06:32:39;;;;;;;1.30;0.55;;;7.90;99.90;;;;;;4991976;28;20199;-71
2023/04/26 06:35:07;;;;;;;3.30;0.65;;;8.20;99.90;;;;;;4991369;28;20208;-71
2023/04/26 06:37:35;;;;;;;1.45;0.98;;;8.20;99.90;;;;;;4991820;28;20220;-71
2023/04/26 06:40:02;;;;;;;1.00;1.00;;;8.20;99.90;;;;;;4991617;28;20208;-72
2023/04/26 06:42:29;;;;;;;0.85;0.85;;;8.60;99.90;;;;;;4991258;28;20231;-71
2023/04/26 06:44:56;;;;;;;0.67;0.67;;;9.30;99.90;;;;;;4991585;28;20221;-71
2023/04/26 06:47:22;;;;;;;0.70;0.70;;;9.90;99.90;;;;;;4991805;28;20466;-71
2023/04/26 06:49:50;;;;;;;1.33;1.33;;;10.60;99.90;;;;;;4991701;28;20551;-71
2023/04/26 06:52:18;;;;;;;1.47;1.00;;;10.60;99.90;;;;;;4991796;28;20483;-71
2023/04/26 06:54:45;;;;;;;1.57;1.47;;;10.90;99.90;;;;;;4990869;28;20765;-71
2023/04/26 06:57:12;;;;;;;2.87;0.80;;;11.20;99.90;;;;;;4990417;28;20646;-72
2023/04/26 06:59:39;;;;;;;1.90;1.20;;;11.00;99.90;;;;;;4991351;28;20467;-71
2023/04/26 07:02:06;;;;;;;1.07;1.07;;;10.70;99.90;;;;;;4991120;28;21037;-71
2023/04/26 07:04:33;;;;;;;1.60;1.10;;;10.20;99.90;;;;;;4991170;28;20470;-71
2023/04/26 07:06:59;;;;;;;2.77;0.97;;;10.00;99.90;;;;;;4991587;28;20595;-72
2023/04/26 07:09:27;;;;;;;1.03;1.03;;;9.90;99.90;;;;;;4990979;28;20946;-72
2023/04/26 07:11:54;;;;;;;2.13;1.77;;;10.10;99.90;;;;;;4990570;28;20987;-72
2023/04/26 07:14:21;;;;;;;0.93;0.93;;;10.00;99.90;;;;;;4991032;28;20463;-71
2023/04/26 07:16:48;;;;;;;0.57;0.57;;;9.70;99.90;;;;;;4990849;28;20743;-71
2023/04/26 07:19:14;;;;;;;1.13;1.00;;;9.70;99.90;;;;;;4991197;28;20234;-72
2023/04/26 07:21:41;;;;;;;2.63;1.08;;;9.60;99.90;;;;;;4990799;28;20262;-71
2023/04/26 07:24:08;;;;;;;1.02;1.02;;;9.50;99.90;;;;;;4990368;28;20219;-72
2023/04/26 07:26:36;;;;;;;1.27;1.23;;;9.30;99.90;;;;;;4990719;28;20224;-71
2023/04/26 07:29:03;;;;;;;1.77;1.73;;;9.10;99.90;;;;;;4997149;28;20230;-71
2023/04/26 07:31:31;;;;;;;0.90;0.90;;;8.90;99.90;;;;;;4992470;28;20311;-71
2023/04/26 07:33:58;;;;;;;4.30;1.65;;;9.00;99.90;;;;;;4991115;28;20208;-71
2023/04/26 07:36:26;;;;;;;4.78;1.80;;;9.00;99.90;;;;;;4990616;28;20270;-72
2023/04/26 07:38:53;;;;;;;12.00;2.65;;;9.00;99.90;;;;;;4991178;28;20693;-71
2023/04/26 07:41:20;;;;;;;0.70;0.70;;;9.10;99.90;;;;;;4990214;28;20228;-72
2023/04/26 07:43:48;;;;;;;0.80;0.80;;;9.10;99.90;;;;;;4990490;28;20239;-71
2023/04/26 07:46:15;;;;;;;1.00;1.00;;;9.20;99.90;;;;;;4990684;28;20214;-71
2023/04/26 07:48:41;;;;;;;0.60;0.60;;;9.30;99.90;;;;;;4990789;28;20303;-72
2023/04/26 07:51:09;;;;;;;1.95;0.60;;;9.50;99.90;;;;;;4990349;28;20220;-72
2023/04/26 07:53:35;;;;;;;1.20;1.20;;;9.50;99.90;;;;;;4990261;28;20243;-72
2023/04/26 07:56:06;;;;;;;2.35;1.02;;;9.50;99.90;;;;;;4990292;28;20204;-71
2023/04/26 07:58:33;;;;;;;1.48;1.33;;;9.50;99.90;;;;;;4990654;28;20247;-71
2023/04/26 08:01:02;;;;;;;0.73;0.73;;;9.20;99.90;;;;;;4990197;28;20235;-71
2023/04/26 08:03:28;;;;;;;1.33;1.23;;;9.10;99.90;;;;;;4990484;28;20320;-72
2023/04/26 08:05:55;;;;;;;0.75;0.75;;;9.20;99.90;;;;;;4990248;28;20699;-71
2023/04/26 08:08:22;;;;;;;1.48;1.48;;;9.50;99.90;;;;;;4990621;28;20208;-72
2023/04/26 08:10:49;;;;;;;2.17;1.13;;;9.60;99.90;;;;;;4990045;28;20236;-72
2023/04/26 08:13:16;;;;;;;3.92;1.00;;;9.70;99.90;;;;;;4990444;28;20576;-73
2023/04/26 08:15:43;;;;;;;5.63;1.63;;;9.70;99.90;;;;;;4990517;28;20207;-72
2023/04/26 08:18:11;;;;;;;0.60;0.60;;;9.80;99.90;;;;;;4990572;28;20212;-72
2023/04/26 08:20:38;;;;;;;0.63;0.63;;;9.70;99.90;;;;;;4990334;28;20342;-71
2023/04/26 08:23:05;;;;;;;0.98;0.68;;;9.80;99.90;;;;;;4991101;28;20679;-71
2023/04/26 08:25:33;;;;;;;0.70;0.70;;;9.70;99.90;;;;;;4993746;28;20536;-72
2023/04/26 08:28:00;;;;;;;5.25;0.95;;;9.80;99.90;;;;;;4994180;28;20302;-72
2023/04/26 08:30:28;;;;;;;0.57;0.57;;;9.90;99.90;;;;;;5011975;28;20214;-71
2023/04/26 08:32:55;;;;;;;1.05;1.05;;;9.90;99.90;;;;;;5014063;28;20215;-73
2023/04/26 08:35:23;;;;;;;0.60;0.60;;;9.80;99.90;;;;;;5013715;28;20211;-72
2023/04/26 08:37:50;;;;;;;2.55;0.95;;;9.80;99.90;;;;;;5014117;28;20238;-72
2023/04/26 08:40:22;;;;;;;0.30;0.30;;;9.90;99.90;;;;;;5014016;28;20215;-72
2023/04/26 08:42:51;;;;;;;0.63;0.63;;;9.80;99.90;;;;;;5013506;28;20226;-72
2023/04/26 08:45:18;;;;;;;1.10;1.08;;;9.60;99.90;;;;;;5013170;28;20203;-72
2023/04/26 08:47:48;;;;;;;3.22;2.10;;;9.60;99.90;;;;;;5013471;28;20238;-73
2023/04/26 08:50:16;;;;;;;1.02;1.02;;;9.70;99.90;;;;;;5013986;28;20375;-73
2023/04/26 08:52:44;;;;;;;6.00;0.93;;;9.70;99.90;;;;;;5013251;28;20203;-73
2023/04/26 08:55:13;;;;;;;5.60;2.05;;;9.60;99.90;;;;;;5012954;28;20214;-72
2023/04/26 08:57:40;;;;;;;1.98;1.77;;;9.50;99.90;;;;;;5013386;28;20207;-72
2023/04/26 09:00:11;;;;;;;0.55;0.55;;;9.50;99.90;;;;;;5013283;28;20207;-72
2023/04/26 09:02:40;;;;;;;8.75;2.95;;;9.60;99.90;;;;;;5013293;28;20714;-72
2023/04/26 09:05:08;;;;;;;0.40;0.40;;;9.80;99.90;;;;;;5012895;28;20223;-72
2023/04/26 09:07:40;;;;;;;0.80;0.80;;;9.90;99.90;;;;;;5013275;28;20270;-72
2023/04/26 09:10:10;;;;;;;0.73;0.73;;;9.90;99.90;;;;;;5012920;28;20321;-73
2023/04/26 09:12:37;;;;;;;1.05;1.05;;;10.00;99.90;;;;;;5012634;28;20716;-72
2023/04/26 09:15:06;;;;;;;2.90;1.15;;;10.30;99.90;;;;;;5012616;28;20679;-72
2023/04/26 09:17:35;;;;;;;1.38;0.95;;;10.50;99.90;;;;;;5013133;28;20207;-72
2023/04/26 09:20:16;;;;;;;0.73;0.73;;;10.30;99.90;;;;;;5013168;28;20287;-72
2023/04/26 09:22:43;;;;;;;1.13;1.02;;;10.40;99.90;;;;;;5014483;28;20537;-73
2023/04/26 09:25:13;;;;;;;1.27;1.27;;;10.50;99.90;;;;;;5012486;28;20249;-72
2023/04/26 09:27:42;;;;;;;1.40;1.30;;;10.70;99.90;;;;;;5013471;28;20207;-72
2023/04/26 09:30:11;;;;;;;2.00;1.92;;;10.70;99.90;;;;;;5006133;28;20207;-72
2023/04/26 09:32:50;;;;;;;1.10;1.10;;;10.60;99.90;;;;;;4993619;28;20231;-72
2023/04/26 09:35:32;;;;;;;0.43;0.40;;;10.60;99.90;;;;;;4991940;28;20214;-72
2023/04/26 09:38:00;;;;;;;0.98;0.98;;;10.40;99.90;;;;;;4991029;28;20212;-72
2023/04/26 09:40:31;;;;;;;3.40;3.30;;;10.20;99.90;;;;;;4993094;28;20212;-72
2023/04/26 09:43:03;;;;;;;1.08;1.08;;;10.20;99.90;;;;;;4993204;28;20764;-72
2023/04/26 09:45:31;;;;;;;0.55;0.55;;;10.10;99.90;;;;;;4993026;28;20204;-72
2023/04/26 09:48:16;;;;;;;0.80;0.80;;;10.10;99.90;;;;;;4993054;28;20235;-73
2023/04/26 09:50:44;;;;;;;1.33;1.33;;;10.20;99.90;;;;;;4993461;28;20659;-72
2023/04/26 09:53:11;;;;;;;0.80;0.80;;;10.20;99.90;;;;;;4993233;28;20303;-72
2023/04/26 09:55:39;;;;;;;3.15;0.85;;;10.20;99.90;;;;;;4992289;28;20239;-72
2023/04/26 09:58:10;;;;;;;1.15;1.15;;;10.20;99.90;;;;;;4992861;28;20601;-72
2023/04/26 10:00:39;;;;;;;0.60;0.60;;;10.30;99.90;;;;;;4992354;28;20235;-72
2023/04/26 10:03:08;;;;;;;0.70;0.70;;;10.30;99.90;;;;;;4993568;28;20227;-72
2023/04/26 10:05:35;;;;;;;2.50;1.00;;;10.20;99.90;;;;;;4992070;28;20597;-72
2023/04/26 10:08:03;;;;;;;0.60;0.60;;;10.00;99.90;;;;;;4992437;28;20219;-73
2023/04/26 10:10:30;;;;;;;0.70;0.70;;;9.80;99.90;;;;;;4993520;28;20207;-72
2023/04/26 10:12:58;;;;;;;1.38;1.25;;;9.90;99.90;;;;;;4992941;28;20208;-72
2023/04/26 10:15:26;;;;;;;2.65;0.80;;;9.90;99.90;;;;;;5028845;23;20235;-72
2023/04/26 10:17:53;;;;;;;0.70;0.70;;;10.10;99.90;;;;;;5012529;28;20226;-72
2023/04/26 10:20:21;;;;;;;0.20;0.20;;;10.20;99.90;;;;;;5012388;28;20211;-72
2023/04/26 10:22:52;;;;;;;0.50;0.32;;;10.30;99.90;;;;;;5012456;28;20231;-72
2023/04/26 10:25:19;;;;;;;0.40;0.40;;;10.30;99.90;;;;;;5011335;28;20227;-72
2023/04/26 10:27:50;;;;;;;0.70;0.70;;;10.40;99.90;;;;;;5011671;28;20297;-71
2023/04/26 10:30:20;;;;;;;6.38;2.65;;;10.40;99.90;;;;;;5011923;28;20203;-72
2023/04/26 10:33:17;;;;;;;1.40;0.52;;;10.50;99.90;;;;;;4992543;28;20223;-72
2023/04/26 10:36:05;;;;;;;0.60;0.60;;;10.50;99.90;;;;;;4992445;28;20318;-72
2023/04/26 10:38:32;;;;;;;0.35;0.35;;;10.60;99.90;;;;;;4992714;28;20672;-72
2023/04/26 10:41:30;;;;;;;0.43;0.43;;;10.70;99.90;;;;;;4991716;28;20246;-72
2023/04/26 10:44:00;;;;;;;2.35;2.25;;;10.70;99.90;;;;;;4991670;28;20282;-72
2023/04/26 10:46:39;;;;;;;1.08;0.75;;;10.60;99.90;;;;;;4991688;28;20672;-72
2023/04/26 10:49:17;;;;;;;0.47;0.47;;;10.80;99.90;;;;;;4992265;28;20674;-72
2023/04/26 10:52:10;;;;;;;0.50;0.50;;;10.80;99.90;;;;;;4992112;28;20302;-72
2023/04/26 10:54:55;;;;;;;1.35;1.25;;;10.90;99.90;;;;;;4991073;28;20341;-70
2023/04/26 10:57:23;;;;;;;0.50;0.50;;;11.10;99.90;;;;;;4991829;28;20644;-71
2023/04/26 11:00:26;;;;;;;0.55;0.55;;;11.30;99.90;;;;;;4991594;28;20207;-71
2023/04/26 11:03:04;;;;;;;1.63;0.97;;;11.40;99.90;;;;;;4991696;28;20211;-71
2023/04/26 11:05:54;;;;;;;0.55;0.55;;;11.40;99.90;;;;;;4990848;28;20483;-73
2023/04/26 11:08:25;;;;;;;0.40;0.40;;;11.30;99.90;;;;;;4991825;28;20397;-71
2023/04/26 11:11:07;;;;;;;0.50;0.50;;;11.40;99.90;;;;;;4990779;28;20478;-71
2023/04/26 11:13:37;;;;;;;0.83;0.83;;;11.60;99.90;;;;;;4991308;28;20510;-71
2023/04/26 11:16:05;;;;;;;0.83;0.83;;;11.50;99.90;;;;;;4991350;28;20556;-72
2023/04/26 11:18:35;;;;;;;1.07;1.07;;;11.50;99.90;;;;;;4991458;28;20973;-72
2023/04/26 11:21:02;;;;;;;0.73;0.73;;;11.70;99.90;;;;;;4991474;28;20822;-72
2023/04/26 11:23:30;;;;;;;0.47;0.40;;;11.70;99.90;;;;;;4990892;28;20495;-72
2023/04/26 11:25:58;;;;;;;1.97;0.80;;;11.70;99.90;;;;;;4990910;28;20590;-72
2023/04/26 11:28:25;;;;;;;0.47;0.47;;;11.70;99.90;;;;;;4992908;28;20463;-72
2023/04/26 11:30:52;;;;;;;0.50;0.50;;;11.20;99.90;;;;;;5011047;28;20778;-73
2023/04/26 11:33:21;;;;;;;3.30;0.68;;;10.90;99.90;;;;;;5010964;28;20253;-73
2023/04/26 11:35:50;;;;;;;1.50;0.88;;;10.70;99.90;;;;;;5011174;28;20227;-74
2023/04/26 11:38:17;;;;;;;0.30;0.30;;;10.50;99.90;;;;;;5011085;28;20210;-73
2023/04/26 11:40:44;;;;;;;1.00;0.30;;;10.30;99.90;;;;;;5010661;28;20219;-73
2023/04/26 11:43:14;;;;;;;2.53;1.73;;;10.00;99.90;;;;;;5010806;28;20695;-73
2023/04/26 11:45:40;;;;;;;0.20;0.20;;;9.80;99.90;;;;;;5011050;28;20318;-73
2023/04/26 11:48:10;;;;;;;0.20;0.20;;;9.70;99.90;;;;;;5011020;28;20206;-73
2023/04/26 11:50:38;;;;;;;0.45;0.45;;;9.60;99.90;;;;;;5010826;28;20226;-73
2023/04/26 11:53:07;;;;;;;0.68;0.68;;;9.60;99.90;;;;;;5010776;28;20215;-73
2023/04/26 11:55:35;;;;;;;0.40;0.40;;;9.50;99.90;;;;;;5009875;28;20245;-73
2023/04/26 11:58:10;;;;;;;0.60;0.60;;;9.60;99.90;;;;;;5011493;28;20257;-73
2023/04/26 12:00:37;;;;;;;0.55;0.55;;;9.40;99.90;;;;;;5015045;28;20280;-73
2023/04/26 12:03:06;;;;;;;3.38;0.77;;;9.30;99.90;;;;;;5014960;28;20234;-73
2023/04/26 12:05:32;;;;;;;5.63;0.73;;;9.30;99.90;;;;;;5014092;28;20257;-74
2023/04/26 12:08:00;;;;;;;3.28;1.98;;;9.30;99.90;;;;;;5014978;28;20207;-73
2023/04/26 12:10:31;;;;;;;3.90;1.10;;;9.60;99.90;;;;;;5015257;28;20287;-73
2023/04/26 12:12:59;;;;;;;5.57;4.32;;;9.80;99.90;;;;;;5014481;28;20211;-73
2023/04/26 12:15:29;;;;;;;0.55;0.55;;;10.20;99.90;;;;;;5014178;28;20554;-73
2023/04/26 12:17:58;;;;;;;1.15;1.15;;;10.50;99.90;;;;;;5015809;28;20211;-73
2023/04/26 12:20:30;;;;;;;2.55;1.92;;;10.60;99.90;;;;;;5015229;28;20266;-74
2023/04/26 12:23:05;;;;;;;1.13;1.05;;;10.80;99.90;;;;;;5015328;28;20255;-74
2023/04/26 12:25:34;;;;;;;1.70;0.90;;;10.80;99.90;;;;;;5014482;28;20222;-73
2023/04/26 12:28:03;;;;;;;4.03;0.47;;;10.80;99.90;;;;;;5014162;28;20470;-71
2023/04/26 12:30:30;;;;;;;0.90;0.90;;;10.80;99.90;;;;;;5013817;28;20556;-72
2023/04/26 12:32:57;;;;;;;4.00;0.82;;;10.70;99.90;;;;;;5015276;28;20222;-72
2023/04/26 12:35:25;;;;;;;0.82;0.82;;;10.60;99.90;;;;;;5014325;28;20410;-72
2023/04/26 12:37:52;;;;;;;1.08;1.08;;;10.50;99.90;;;;;;5014425;28;20305;-73
2023/04/26 12:40:19;;;;;;;1.33;1.33;;;10.50;99.90;;;;;;5013526;28;20663;-72
2023/04/26 12:42:49;;;;;;;2.67;0.88;;;10.50;99.90;;;;;;5014806;28;20289;-73
2023/04/26 12:45:17;;;;;;;0.35;0.35;;;10.40;99.90;;;;;;5013413;28;20540;-72
2023/04/26 12:47:44;;;;;;;2.05;1.02;;;10.30;99.90;;;;;;5014055;28;20203;-72
2023/04/26 12:50:12;;;;;;;0.65;0.65;;;10.30;99.90;;;;;;5014053;28;20318;-72
2023/04/26 12:52:39;;;;;;;0.45;0.32;;;10.40;99.90;;;;;;5014028;28;20234;-72
2023/04/26 12:55:07;;;;;;;2.78;1.35;;;10.50;99.90;;;;;;5012588;28;20223;-72
2023/04/26 12:57:34;;;;;;;2.40;0.60;;;10.50;99.90;;;;;;5013671;28;20211;-72
2023/04/26 13:00:03;;;;;;;0.90;0.90;;;10.60;99.90;;;;;;5014180;28;20598;-72
2023/04/26 13:02:30;;;;;;;0.52;0.52;;;10.70;99.90;;;;;;5013940;28;20211;-72
2023/04/26 13:04:56;;;;;;;0.70;0.70;;;10.70;99.90;;;;;;5013282;28;20231;-72
2023/04/26 13:07:23;;;;;;;2.47;1.23;;;10.80;99.90;;;;;;5013710;28;20211;-72
2023/04/26 13:09:50;;;;;;;0.40;0.40;;;10.60;99.90;;;;;;5012932;28;20234;-72
2023/04/26 13:12:17;;;;;;;3.60;0.75;;;10.60;99.90;;;;;;5013173;28;20213;-72
2023/04/26 13:14:43;;;;;;;9.02;1.30;;;10.50;99.90;;;;;;5012869;28;20231;-72
2023/04/26 13:17:11;;;;;;;0.60;0.60;;;10.50;99.90;;;;;;5013622;28;20679;-72
2023/04/26 13:19:38;;;;;;;0.55;0.55;;;10.50;99.90;;;;;;5013775;28;20209;-72
2023/04/26 13:22:07;;;;;;;0.57;0.57;;;10.40;99.90;;;;;;5013654;28;21040;-72
2023/04/26 13:24:34;;;;;;;1.00;0.30;;;10.20;99.90;;;;;;5012638;28;20237;-72
2023/04/26 13:27:00;;;;;;;0.30;0.30;;;10.10;99.90;;;;;;5013274;28;20234;-72
2023/04/26 13:29:27;;;;;;;2.60;1.00;;;10.00;99.90;;;;;;5013256;28;20207;-72
2023/04/26 13:31:54;;;;;;;1.05;0.60;;;9.90;99.90;;;;;;5013237;28;20208;-73
2023/04/26 13:34:22;;;;;;;2.38;1.35;;;9.80;99.90;;;;;;5012582;28;20227;-72
2023/04/26 13:36:49;;;;;;;0.50;0.50;;;9.80;99.90;;;;;;5013060;28;20214;-72
2023/04/26 13:39:16;;;;;;;0.60;0.60;;;9.90;99.90;;;;;;5012658;28;20648;-72
2023/04/26 13:41:42;;;;;;;1.35;1.33;;;10.10;99.90;;;;;;5012618;28;20202;-73
2023/04/26 13:44:09;;;;;;;0.85;0.85;;;10.40;99.90;;;;;;5012969;28;20258;-73
2023/04/26 13:46:36;;;;;;;1.60;1.05;;;10.50;99.90;;;;;;5013356;28;20217;-72
2023/04/26 13:49:04;;;;;;;0.73;0.73;;;10.60;99.90;;;;;;5013282;28;20289;-72
2023/04/26 13:51:33;;;;;;;0.50;0.50;;;10.70;99.90;;;;;;5014433;28;20247;-72
2023/04/26 13:54:00;;;;;;;0.70;0.70;;;10.70;99.90;;;;;;5014004;28;20549;-71
2023/04/26 13:56:26;;;;;;;0.43;0.40;;;10.80;99.90;;;;;;5013304;28;20213;-72
2023/04/26 13:58:56;;;;;;;0.95;0.55;;;10.80;99.90;;;;;;5013849;28;20580;-72
2023/04/26 14:01:23;;;;;;;0.85;0.73;;;10.80;99.90;;;;;;5014676;28;20699;-72
2023/04/26 14:03:49;;;;;;;1.27;0.65;;;10.70;99.90;;;;;;5012055;28;20211;-72
2023/04/26 14:06:16;;;;;;;1.00;0.60;;;10.80;99.90;;;;;;5012515;28;20222;-72
2023/04/26 14:08:44;;;;;;;5.63;1.45;;;10.80;99.90;;;;;;5012799;28;20207;-72
2023/04/26 14:11:12;;;;;;;6.50;3.97;;;10.80;99.90;;;;;;5011571;28;20215;-72
2023/04/26 14:13:39;;;;;;;3.80;1.70;;;10.90;99.90;;;;;;5012121;28;20261;-72
2023/04/26 14:16:07;;;;;;;0.60;0.60;;;10.80;99.90;;;;;;5011836;28;20304;-72
2023/04/26 14:18:33;;;;;;;0.55;0.55;;;10.90;99.90;;;;;;5012404;28;20317;-72
2023/04/26 14:21:00;;;;;;;2.00;1.23;;;11.10;99.90;;;;;;5010984;28;20221;-72
2023/04/26 14:23:27;;;;;;;0.63;0.63;;;11.10;99.90;;;;;;5012035;28;20207;-72
2023/04/26 14:25:55;;;;;;;1.05;1.05;;;11.00;99.90;;;;;;5011155;28;20235;-72
2023/04/26 14:28:22;;;;;;;0.82;0.82;;;10.90;99.90;;;;;;5012048;28;20210;-73
2023/04/26 14:30:49;;;;;;;1.42;0.47;;;10.80;99.90;;;;;;5011759;28;20222;-73
2023/04/26 14:33:16;;;;;;;1.38;1.17;;;10.80;99.90;;;;;;5012052;28;20223;-73
2023/04/26 14:35:42;;;;;;;1.38;0.95;;;10.80;99.90;;;;;;5012067;28;20227;-72
2023/04/26 14:38:09;;;;;;;4.72;0.50;;;10.80;99.90;;;;;;5011590;28;20210;-73
2023/04/26 14:40:36;;;;;;;1.30;1.30;;;10.90;99.90;;;;;;5011233;28;20211;-72
2023/04/26 14:43:04;;;;;;;1.02;0.60;;;10.90;99.90;;;;;;5011495;28;20558;-73
2023/04/26 14:45:32;;;;;;;0.68;0.68;;;10.90;99.90;;;;;;5010742;28;20227;-73
2023/04/26 14:47:59;;;;;;;0.30;0.30;;;10.90;99.90;;;;;;5011612;28;20296;-72
2023/04/26 14:50:26;;;;;;;0.52;0.52;;;10.80;99.90;;;;;;5011840;28;20203;-73
2023/04/26 14:52:53;;;;;;;0.65;0.45;;;10.80;99.90;;;;;;5011741;28;20207;-73
2023/04/26 14:55:21;;;;;;;1.02;0.50;;;10.70;99.90;;;;;;5010981;28;20277;-73
2023/04/26 14:57:48;;;;;;;0.35;0.35;;;10.60;99.90;;;;;;5011173;28;20251;-73
2023/04/26 15:00:17;;;;;;;0.25;0.25;;;10.60;99.90;;;;;;5011475;28;20227;-74
2023/04/26 15:02:44;;;;;;;14.40;1.60;;;10.50;99.90;;;;;;5011933;28;20791;-72
2023/04/26 15:05:11;;;;;;;0.60;0.60;;;10.50;99.90;;;;;;5010840;28;20293;-72
2023/04/26 15:07:38;;;;;;;2.78;0.80;;;10.50;99.90;;;;;;5011431;28;20362;-72
2023/04/26 15:10:06;;;;;;;0.73;0.55;;;10.50;99.90;;;;;;5010711;28;20213;-72
2023/04/26 15:12:33;;;;;;;0.90;0.90;;;10.50;99.90;;;;;;5011328;28;20207;-72
2023/04/26 15:15:00;;;;;;;0.30;0.30;;;10.60;99.90;;;;;;5010415;28;20410;-72
2023/04/26 15:17:29;;;;;;;0.77;0.38;;;10.60;99.90;;;;;;5011061;28;20702;-73
2023/04/26 15:19:56;;;;;;;0.40;0.40;;;10.50;99.90;;;;;;5011171;28;20286;-72
2023/04/26 15:22:23;;;;;;;0.30;0.30;;;10.40;99.90;;;;;;5010993;28;20210;-72
2023/04/26 15:24:49;;;;;;;0.38;0.22;;;10.40;99.90;;;;;;5010433;28;20227;-72
2023/04/26 15:27:16;;;;;;;0.70;0.70;;;10.30;99.90;;;;;;5010695;28;20658;-72
2023/04/26 15:29:43;;;;;;;0.20;0.20;;;10.30;99.90;;;;;;5010570;28;20664;-72
2023/04/26 15:32:10;;;;;;;0.52;0.52;;;10.40;99.90;;;;;;5011437;28;20210;-72
2023/04/26 15:34:42;;;;;;;0.55;0.55;;;10.40;99.90;;;;;;5011032;28;20547;-73
2023/04/26 15:37:09;;;;;;;0.30;0.30;;;10.40;99.90;;;;;;5011642;28;20374;-73
2023/04/26 15:39:36;;;;;;;5.70;1.55;;;10.40;99.90;;;;;;5010993;28;20682;-73
2023/04/26 15:42:04;;;;;;;1.05;0.68;;;10.50;99.90;;;;;;5011794;28;20211;-72
2023/04/26 15:44:31;;;;;;;0.65;0.65;;;10.50;99.90;;;;;;5010504;28;20235;-73
2023/04/26 15:46:57;;;;;;;2.35;0.35;;;10.50;99.90;;;;;;5011791;28;20211;-73
2023/04/26 15:49:24;;;;;;;0.95;0.95;;;10.60;99.90;;;;;;5010908;28;20207;-73
2023/04/26 15:51:52;;;;;;;0.35;0.35;;;10.50;99.90;;;;;;5011245;28;20207;-73
2023/04/26 15:54:20;;;;;;;3.15;0.45;;;10.60;99.90;;;;;;5010479;28;20238;-73
2023/04/26 15:56:47;;;;;;;0.30;0.30;;;10.70;99.90;;;;;;5011148;28;20582;-74
2023/04/26 15:59:14;;;;;;;1.23;0.98;;;10.70;99.90;;;;;;5011343;28;20298;-74
2023/04/26 16:01:41;;;;;;;1.77;0.73;;;10.60;99.90;;;;;;5011365;28;20210;-74
2023/04/26 16:04:08;;;;;;;0.30;0.30;;;10.50;99.90;;;;;;5011051;28;20674;-74
2023/04/26 16:06:35;;;;;;;0.40;0.40;;;10.40;99.90;;;;;;5011618;28;20328;-74
2023/04/26 16:09:06;;;;;;;0.50;0.50;;;10.40;99.90;;;;;;5011653;28;20210;-73
2023/04/26 16:11:33;;;;;;;0.50;0.50;;;10.40;99.90;;;;;;5011673;28;20589;-73
2023/04/26 16:14:00;;;;;;;0.65;0.65;;;10.40;99.90;;;;;;5011452;28;20268;-73
2023/04/26 16:16:27;;;;;;;0.73;0.73;;;10.30;99.90;;;;;;5011887;28;20221;-72
2023/04/26 16:18:54;;;;;;;7.20;1.33;;;10.40;99.90;;;;;;5011489;28;20306;-72
2023/04/26 16:21:21;;;;;;;0.43;0.43;;;10.50;99.90;;;;;;5011089;28;20235;-71
2023/04/26 16:23:48;;;;;;;0.52;0.25;;;10.50;99.90;;;;;;5010844;28;20518;-72
2023/04/26 16:26:16;;;;;;;0.65;0.65;;;10.40;99.90;;;;;;5009977;28;20231;-72
2023/04/26 16:28:43;;;;;;;2.47;1.10;;;10.40;99.90;;;;;;5010974;28;20223;-72
2023/04/26 16:31:10;;;;;;;0.50;0.50;;;10.40;99.90;;;;;;5010654;28;20206;-72
2023/04/26 16:33:37;;;;;;;0.75;0.28;;;10.30;99.90;;;;;;5010711;28;20215;-72
2023/04/26 16:36:04;;;;;;;4.65;0.50;;;10.30;99.90;;;;;;5010384;28;20703;-72
2023/04/26 16:38:31;;;;;;;0.40;0.40;;;10.20;99.90;;;;;;5010733;28;20207;-72
2023/04/26 16:41:00;;;;;;;0.40;0.40;;;10.10;99.90;;;;;;5009958;28;20207;-72
2023/04/26 16:43:30;;;;;;;0.50;0.50;;;10.10;99.90;;;;;;5010267;28;20266;-72
2023/04/26 16:45:58;;;;;;;1.00;0.30;;;10.10;99.90;;;;;;5014322;28;20227;-73
2023/04/26 16:48:24;;;;;;;0.55;0.55;;;10.10;99.90;;;;;;5014410;28;20207;-73
2023/04/26 16:50:51;;;;;;;2.92;1.02;;;10.10;99.90;;;;;;5014201;28;20318;-72
2023/04/26 16:53:19;;;;;;;0.52;0.52;;;10.10;99.90;;;;;;5014170;28;20598;-72
2023/04/26 16:55:46;;;;;;;2.15;0.90;;;10.10;99.90;;;;;;5012962;28;20687;-72